sensor_id;sensor_type;location;lat;lon;timestamp;P1;durP1;ratioP1;P2;durP2;ratioP2
74959;SDS011;63518;49.572;1.106;2023-02-15T11:32:53;16.27;;;7.07;;
74959;SDS011;63518;49.572;1.106;2023-02-15T16:53:41;24.48;;;12.77;;
74959;SDS011;63518;49.572;1.106;2023-02-15T16:56:13;23.77;;;12.68;;
74959;SDS011;63518;49.572;1.106;2023-02-15T16:58:43;23.98;;;12.88;;
74959;SDS011;63518;49.572;1.106;2023-02-15T17:01:12;23.50;;;12.90;;
74959;SDS011;63518;49.572;1.106;2023-02-15T17:03:41;25.00;;;13.38;;
74959;SDS011;63518;49.572;1.106;2023-02-15T17:06:22;25.00;;;13.52;;
74959;SDS011;63518;49.572;1.106;2023-02-15T17:09:02;25.35;;;14.00;;
74959;SDS011;63518;49.572;1.106;2023-02-15T17:11:33;25.40;;;14.32;;
74959;SDS011;63518;49.572;1.106;2023-02-15T17:16:40;25.05;;;13.27;;
74959;SDS011;63518;49.572;1.106;2023-02-15T17:19:33;27.57;;;15.20;;
74959;SDS011;63518;49.572;1.106;2023-02-15T17:22:18;34.05;;;21.00;;
74959;SDS011;63518;49.572;1.106;2023-02-15T17:24:48;28.17;;;15.25;;
74959;SDS011;63518;49.572;1.106;2023-02-15T17:27:24;28.67;;;17.52;;
74959;SDS011;63518;49.572;1.106;2023-02-15T17:29:57;30.67;;;18.40;;
74959;SDS011;63518;49.572;1.106;2023-02-15T17:32:29;29.50;;;18.75;;
74959;SDS011;63518;49.572;1.106;2023-02-15T17:35:00;26.27;;;14.88;;
74959;SDS011;63518;49.572;1.106;2023-02-15T17:40:10;30.20;;;17.10;;
74959;SDS011;63518;49.572;1.106;2023-02-15T17:42:52;29.77;;;17.13;;
74959;SDS011;63518;49.572;1.106;2023-02-15T17:45:20;25.80;;;14.55;;
74959;SDS011;63518;49.572;1.106;2023-02-15T17:47:50;25.30;;;14.37;;
74959;SDS011;63518;49.572;1.106;2023-02-15T17:50:21;25.50;;;13.38;;
74959;SDS011;63518;49.572;1.106;2023-02-15T17:52:51;24.10;;;13.13;;
74959;SDS011;63518;49.572;1.106;2023-02-15T17:55:21;25.52;;;13.93;;
74959;SDS011;63518;49.572;1.106;2023-02-15T17:58:03;27.15;;;14.60;;
74959;SDS011;63518;49.572;1.106;2023-02-15T18:00:34;24.37;;;13.80;;
74959;SDS011;63518;49.572;1.106;2023-02-15T18:03:24;25.27;;;14.50;;
74959;SDS011;63518;49.572;1.106;2023-02-15T18:06:14;25.83;;;14.65;;
74959;SDS011;63518;49.572;1.106;2023-02-15T18:09:00;25.90;;;14.30;;
74959;SDS011;63518;49.572;1.106;2023-02-15T18:11:45;26.65;;;14.60;;
74959;SDS011;63518;49.572;1.106;2023-02-15T18:14:16;27.90;;;15.35;;
74959;SDS011;63518;49.572;1.106;2023-02-15T18:16:44;25.92;;;14.27;;
74959;SDS011;63518;49.572;1.106;2023-02-15T18:19:13;26.83;;;14.05;;
74959;SDS011;63518;49.572;1.106;2023-02-15T18:21:51;27.65;;;14.70;;
74959;SDS011;63518;49.572;1.106;2023-02-15T18:24:21;28.25;;;15.20;;
74959;SDS011;63518;49.572;1.106;2023-02-15T18:26:51;27.70;;;15.50;;
74959;SDS011;63518;49.572;1.106;2023-02-15T18:29:22;29.23;;;16.63;;
74959;SDS011;63518;49.572;1.106;2023-02-15T18:31:52;28.23;;;15.38;;
74959;SDS011;63518;49.572;1.106;2023-02-15T18:34:29;28.45;;;14.68;;
74959;SDS011;63518;49.572;1.106;2023-02-15T18:39:47;22.92;;;9.73;;
74959;SDS011;63518;49.572;1.106;2023-02-15T18:42:24;23.30;;;8.80;;
74959;SDS011;63518;49.572;1.106;2023-02-15T18:44:58;21.10;;;9.20;;
74959;SDS011;63518;49.572;1.106;2023-02-15T18:47:36;20.45;;;9.13;;
74959;SDS011;63518;49.572;1.106;2023-02-15T18:50:07;22.20;;;9.00;;
74959;SDS011;63518;49.572;1.106;2023-02-15T18:52:36;20.77;;;9.48;;
74959;SDS011;63518;49.572;1.106;2023-02-15T18:55:11;19.27;;;8.82;;
74959;SDS011;63518;49.572;1.106;2023-02-15T18:57:50;21.02;;;9.57;;
74959;SDS011;63518;49.572;1.106;2023-02-15T19:02:52;21.30;;;9.00;;
74959;SDS011;63518;49.572;1.106;2023-02-15T19:05:21;19.83;;;9.20;;
74959;SDS011;63518;49.572;1.106;2023-02-15T19:07:49;19.65;;;9.45;;
74959;SDS011;63518;49.572;1.106;2023-02-15T19:10:18;22.02;;;10.05;;
74959;SDS011;63518;49.572;1.106;2023-02-15T19:12:51;19.90;;;8.38;;
74959;SDS011;63518;49.572;1.106;2023-02-15T19:17:50;20.63;;;8.23;;
74959;SDS011;63518;49.572;1.106;2023-02-15T19:20:19;20.55;;;8.35;;
74959;SDS011;63518;49.572;1.106;2023-02-15T19:22:51;21.88;;;9.73;;
74959;SDS011;63518;49.572;1.106;2023-02-15T19:25:23;21.85;;;9.85;;
74959;SDS011;63518;49.572;1.106;2023-02-15T19:27:53;18.80;;;8.40;;
74959;SDS011;63518;49.572;1.106;2023-02-15T19:30:22;18.92;;;7.90;;
74959;SDS011;63518;49.572;1.106;2023-02-15T19:32:54;18.80;;;7.93;;
74959;SDS011;63518;49.572;1.106;2023-02-15T19:35:27;18.88;;;7.47;;
74959;SDS011;63518;49.572;1.106;2023-02-15T19:37:58;19.33;;;7.82;;
74959;SDS011;63518;49.572;1.106;2023-02-15T19:40:29;16.08;;;6.85;;
74959;SDS011;63518;49.572;1.106;2023-02-15T19:43:00;13.35;;;6.18;;
74959;SDS011;63518;49.572;1.106;2023-02-15T19:45:29;14.10;;;6.85;;
74959;SDS011;63518;49.572;1.106;2023-02-15T19:48:01;18.73;;;7.95;;
74959;SDS011;63518;49.572;1.106;2023-02-15T19:50:30;18.33;;;8.13;;
74959;SDS011;63518;49.572;1.106;2023-02-15T19:53:02;17.77;;;8.07;;
74959;SDS011;63518;49.572;1.106;2023-02-15T19:55:33;20.23;;;8.73;;
74959;SDS011;63518;49.572;1.106;2023-02-15T19:58:08;17.23;;;7.47;;
74959;SDS011;63518;49.572;1.106;2023-02-15T20:00:38;17.63;;;6.80;;
74959;SDS011;63518;49.572;1.106;2023-02-15T20:03:07;18.33;;;7.10;;
74959;SDS011;63518;49.572;1.106;2023-02-15T20:05:35;20.88;;;7.72;;
74959;SDS011;63518;49.572;1.106;2023-02-15T20:10:35;22.25;;;8.65;;
74959;SDS011;63518;49.572;1.106;2023-02-15T20:13:03;17.38;;;7.82;;
74959;SDS011;63518;49.572;1.106;2023-02-15T20:15:34;12.48;;;5.78;;
74959;SDS011;63518;49.572;1.106;2023-02-15T20:18:06;23.27;;;8.75;;
74959;SDS011;63518;49.572;1.106;2023-02-15T20:23:33;13.70;;;6.28;;
74959;SDS011;63518;49.572;1.106;2023-02-15T20:26:09;11.73;;;5.45;;
74959;SDS011;63518;49.572;1.106;2023-02-15T20:31:15;10.20;;;4.15;;
74959;SDS011;63518;49.572;1.106;2023-02-15T20:33:46;12.13;;;6.13;;
74959;SDS011;63518;49.572;1.106;2023-02-15T20:36:15;10.75;;;4.90;;
74959;SDS011;63518;49.572;1.106;2023-02-15T20:38:47;18.50;;;8.70;;
74959;SDS011;63518;49.572;1.106;2023-02-15T20:41:16;13.98;;;5.03;;
74959;SDS011;63518;49.572;1.106;2023-02-15T20:44:19;21.17;;;7.15;;
74959;SDS011;63518;49.572;1.106;2023-02-15T20:46:52;18.30;;;7.88;;
74959;SDS011;63518;49.572;1.106;2023-02-15T20:49:22;19.38;;;8.32;;
74959;SDS011;63518;49.572;1.106;2023-02-15T20:51:51;18.27;;;7.93;;
74959;SDS011;63518;49.572;1.106;2023-02-15T20:54:24;22.00;;;9.15;;
74959;SDS011;63518;49.572;1.106;2023-02-15T20:56:54;21.55;;;9.27;;
74959;SDS011;63518;49.572;1.106;2023-02-15T20:59:23;22.13;;;9.40;;
74959;SDS011;63518;49.572;1.106;2023-02-15T21:01:56;19.00;;;8.80;;
74959;SDS011;63518;49.572;1.106;2023-02-15T21:04:30;18.15;;;8.13;;
74959;SDS011;63518;49.572;1.106;2023-02-15T21:06:59;21.80;;;9.18;;
74959;SDS011;63518;49.572;1.106;2023-02-15T21:09:27;6.90;;;2.75;;
74959;SDS011;63518;49.572;1.106;2023-02-15T21:11:55;6.95;;;3.42;;
74959;SDS011;63518;49.572;1.106;2023-02-15T21:14:25;12.70;;;6.38;;
74959;SDS011;63518;49.572;1.106;2023-02-15T21:16:53;17.45;;;8.20;;
74959;SDS011;63518;49.572;1.106;2023-02-15T21:19:21;15.85;;;7.10;;
74959;SDS011;63518;49.572;1.106;2023-02-15T21:21:50;10.50;;;5.18;;
74959;SDS011;63518;49.572;1.106;2023-02-15T21:24:25;18.27;;;7.70;;
74959;SDS011;63518;49.572;1.106;2023-02-15T21:26:54;11.23;;;5.10;;
74959;SDS011;63518;49.572;1.106;2023-02-15T21:29:24;14.50;;;6.95;;
74959;SDS011;63518;49.572;1.106;2023-02-15T21:31:53;17.25;;;7.03;;
74959;SDS011;63518;49.572;1.106;2023-02-15T21:34:24;17.58;;;7.68;;
74959;SDS011;63518;49.572;1.106;2023-02-15T21:36:52;20.48;;;7.95;;
74959;SDS011;63518;49.572;1.106;2023-02-15T21:39:20;20.15;;;8.82;;
74959;SDS011;63518;49.572;1.106;2023-02-15T21:41:53;19.65;;;7.97;;
74959;SDS011;63518;49.572;1.106;2023-02-15T21:44:40;13.70;;;6.18;;
74959;SDS011;63518;49.572;1.106;2023-02-15T21:47:27;16.05;;;7.30;;
74959;SDS011;63518;49.572;1.106;2023-02-15T21:50:19;13.63;;;6.90;;
74959;SDS011;63518;49.572;1.106;2023-02-15T21:53:08;18.33;;;8.45;;
74959;SDS011;63518;49.572;1.106;2023-02-15T21:55:39;16.52;;;7.03;;
74959;SDS011;63518;49.572;1.106;2023-02-15T21:58:20;19.27;;;8.25;;
74959;SDS011;63518;49.572;1.106;2023-02-15T22:00:52;13.55;;;5.97;;
74959;SDS011;63518;49.572;1.106;2023-02-15T22:03:22;20.27;;;7.97;;
74959;SDS011;63518;49.572;1.106;2023-02-15T22:05:51;20.70;;;7.70;;
74959;SDS011;63518;49.572;1.106;2023-02-15T22:08:20;14.55;;;6.45;;
74959;SDS011;63518;49.572;1.106;2023-02-15T22:10:47;16.15;;;7.07;;
74959;SDS011;63518;49.572;1.106;2023-02-15T22:13:16;19.92;;;8.43;;
74959;SDS011;63518;49.572;1.106;2023-02-15T22:15:51;19.48;;;7.35;;
74959;SDS011;63518;49.572;1.106;2023-02-15T22:18:21;14.85;;;5.43;;
74959;SDS011;63518;49.572;1.106;2023-02-15T22:20:51;17.25;;;6.97;;
74959;SDS011;63518;49.572;1.106;2023-02-15T22:23:19;19.52;;;5.88;;
74959;SDS011;63518;49.572;1.106;2023-02-15T22:25:54;18.52;;;7.72;;
74959;SDS011;63518;49.572;1.106;2023-02-15T22:28:25;17.92;;;7.63;;
74959;SDS011;63518;49.572;1.106;2023-02-15T22:30:57;12.32;;;5.40;;
74959;SDS011;63518;49.572;1.106;2023-02-15T22:33:28;14.35;;;6.68;;
74959;SDS011;63518;49.572;1.106;2023-02-15T22:36:00;19.27;;;8.05;;
74959;SDS011;63518;49.572;1.106;2023-02-15T22:38:28;15.70;;;6.88;;
74959;SDS011;63518;49.572;1.106;2023-02-15T22:40:57;13.18;;;5.82;;
74959;SDS011;63518;49.572;1.106;2023-02-15T22:43:40;15.07;;;7.32;;
74959;SDS011;63518;49.572;1.106;2023-02-15T22:46:13;15.40;;;6.32;;
74959;SDS011;63518;49.572;1.106;2023-02-15T22:48:44;13.68;;;6.07;;
74959;SDS011;63518;49.572;1.106;2023-02-15T22:51:14;19.42;;;8.38;;
74959;SDS011;63518;49.572;1.106;2023-02-15T22:53:42;17.17;;;8.07;;
74959;SDS011;63518;49.572;1.106;2023-02-15T22:59:24;11.10;;;3.67;;
74959;SDS011;63518;49.572;1.106;2023-02-15T23:01:55;15.27;;;7.18;;
74959;SDS011;63518;49.572;1.106;2023-02-15T23:04:24;18.08;;;6.82;;
74959;SDS011;63518;49.572;1.106;2023-02-15T23:06:54;15.00;;;6.03;;
74959;SDS011;63518;49.572;1.106;2023-02-15T23:11:53;18.60;;;6.95;;
74959;SDS011;63518;49.572;1.106;2023-02-15T23:16:48;14.93;;;6.53;;
74959;SDS011;63518;49.572;1.106;2023-02-15T23:19:16;18.95;;;8.40;;
74959;SDS011;63518;49.572;1.106;2023-02-15T23:21:43;14.65;;;6.72;;
74959;SDS011;63518;49.572;1.106;2023-02-15T23:26:46;20.02;;;7.20;;
74959;SDS011;63518;49.572;1.106;2023-02-15T23:29:18;19.92;;;8.23;;
74959;SDS011;63518;49.572;1.106;2023-02-15T23:31:50;18.63;;;8.20;;
74959;SDS011;63518;49.572;1.106;2023-02-15T23:34:26;20.02;;;6.90;;
74959;SDS011;63518;49.572;1.106;2023-02-15T23:36:55;18.00;;;8.02;;
74959;SDS011;63518;49.572;1.106;2023-02-15T23:39:23;16.92;;;7.18;;
74959;SDS011;63518;49.572;1.106;2023-02-15T23:42:12;15.13;;;6.93;;
74959;SDS011;63518;49.572;1.106;2023-02-15T23:44:43;18.25;;;7.57;;
74959;SDS011;63518;49.572;1.106;2023-02-15T23:50:23;19.65;;;8.18;;
74959;SDS011;63518;49.572;1.106;2023-02-15T23:52:53;18.73;;;8.20;;
74959;SDS011;63518;49.572;1.106;2023-02-15T23:55:21;8.18;;;4.18;;
74959;SDS011;63518;49.572;1.106;2023-02-15T23:57:52;11.60;;;5.05;;
